Rapatee, Illinois
Current Conditions -  °F | °C
As of 5:15 PM on Wednesday 22 Oct 2014 (Local Time) from KGBG Reporting Station
Haze Haze  
Wind Chill: 58°   Ceiling: Unl
Heat Index: 58°   Visibility: 2.5mi
Dew Point: 38°   Wind: 6mph
Humidity: 48%   Direction: 130°SE
Pressure: 30.21"   Gusts: NA
Location:  40.6713°N, 90.2556°W
Report Text: KGBG 222215Z AUTO 13005KT 2 1/2SM HZ CLR 14/03 A3021 RMK AO2 T01420032
Loading
Personal Weather Stations






























Interactive Weather Map
Tropical Storm Tracking
New forecast layout! Learn more

10-Day Weather Forecast

Advertisements
Track Severe Weather on mobile